createdAt,value
2022-08-05T00:00:20.939Z,71.54
2022-08-05T00:02:52.403Z,71.52
2022-08-05T00:06:01.839Z,71.86
2022-08-05T00:08:32.511Z,71.59
2022-08-05T00:10:53.961Z,71.72
2022-08-05T00:13:20.693Z,71.67
2022-08-05T00:16:05.891Z,71.52
2022-08-05T00:18:35.191Z,71.10
2022-08-05T00:21:01.838Z,70.92
2022-08-05T00:23:44.287Z,71.11
2022-08-05T00:26:13.689Z,70.72
2022-08-05T00:28:43.108Z,71.33
2022-08-05T00:31:12.479Z,71.64
2022-08-05T00:34:55.706Z,71.80
2022-08-05T00:37:13.245Z,71.81
2022-08-05T00:39:41.538Z,71.65
2022-08-05T00:46:03.479Z,71.39
2022-08-05T00:48:31.774Z,71.25
2022-08-05T00:50:58.495Z,71.21
2022-08-05T00:54:00.868Z,71.22
2022-08-05T00:56:12.100Z,71.45
2022-08-05T00:58:39.016Z,72.08
2022-08-05T01:01:10.527Z,72.04
2022-08-05T01:03:38.366Z,71.60
2022-08-05T01:06:05.721Z,71.23
2022-08-05T01:08:42.680Z,71.50
2022-08-05T01:11:33.476Z,71.65
2022-08-05T01:14:08.571Z,71.36
2022-08-05T01:16:54.807Z,71.55
2022-08-05T01:20:00.977Z,70.94
2022-08-05T01:22:42.018Z,71.56
2022-08-05T01:25:59.044Z,71.46
2022-08-05T01:28:36.226Z,71.50
2022-08-05T01:31:23.023Z,71.63
2022-08-05T01:34:14.957Z,71.69
2022-08-05T01:36:47.700Z,71.98
2022-08-05T01:39:15.763Z,71.90
2022-08-05T01:42:02.489Z,71.85
2022-08-05T01:44:34.377Z,71.68
2022-08-05T01:47:02.380Z,72.11
2022-08-05T01:50:00.398Z,71.99
2022-08-05T01:52:19.436Z,71.72
2022-08-05T01:54:48.717Z,71.97
2022-08-05T01:58:10.130Z,72.07
2022-08-05T02:00:12.093Z,72.13
2022-08-05T02:02:46.574Z,72.36
2022-08-05T02:05:18.117Z,71.64
2022-08-05T02:07:59.808Z,71.78
2022-08-05T02:10:28.653Z,71.56
2022-08-05T02:12:57.067Z,72.30
2022-08-05T02:15:33.368Z,72.17
2022-08-05T02:18:28.045Z,71.88
2022-08-05T02:20:52.298Z,71.35
2022-08-05T02:23:21.025Z,71.48
2022-08-05T02:25:49.161Z,72.00
2022-08-05T02:28:16.355Z,71.71
2022-08-05T02:31:14.282Z,71.60
2022-08-05T02:33:45.098Z,71.80
2022-08-05T02:36:16.683Z,71.75
2022-08-05T02:38:53.656Z,72.07
2022-08-05T02:41:21.120Z,71.75
2022-08-05T02:44:06.514Z,72.10
2022-08-05T02:46:58.554Z,72.21
2022-08-05T02:49:40.409Z,72.08
2022-08-05T02:52:11.422Z,72.41
2022-08-05T02:54:41.420Z,72.38
2022-08-05T02:58:11.319Z,72.47
2022-08-05T02:59:59.367Z,72.62
2022-08-05T03:02:31.065Z,72.08
2022-08-05T03:04:57.927Z,72.26
2022-08-05T03:08:00.292Z,72.05
2022-08-05T03:10:14.672Z,72.42
2022-08-05T03:12:41.383Z,72.76
2022-08-05T03:15:12.218Z,72.53
2022-08-05T03:17:41.529Z,73.05
2022-08-05T03:20:10.282Z,72.49
2022-08-05T03:22:37.093Z,72.53
2022-08-05T03:25:31.640Z,72.58
2022-08-05T03:28:00.109Z,72.60
2022-08-05T03:30:28.705Z,72.58
2022-08-05T03:33:01.829Z,72.46
2022-08-05T03:35:28.862Z,72.54
2022-08-05T03:37:59.316Z,72.61
2022-08-05T03:40:32.289Z,72.36
2022-08-05T03:43:16.001Z,72.73
2022-08-05T03:45:57.469Z,72.91
2022-08-05T03:48:25.294Z,72.61
2022-08-05T03:52:37.668Z,72.27
2022-08-05T03:56:01.873Z,72.59
2022-08-05T03:57:02.481Z,72.93
2022-08-05T04:00:15.518Z,73.05
2022-08-05T04:02:57.660Z,72.73
2022-08-05T04:05:27.919Z,73.07
2022-08-05T04:08:05.698Z,73.02
2022-08-05T04:10:41.093Z,72.96
2022-08-05T04:13:08.233Z,72.66
2022-08-05T04:15:36.070Z,72.53
2022-08-05T04:18:06.825Z,72.64
2022-08-05T04:20:34.582Z,72.42
2022-08-05T04:23:01.635Z,72.60
2022-08-05T04:25:57.496Z,72.17
2022-08-05T04:28:15.506Z,72.27
2022-08-05T04:30:44.042Z,71.74
2022-08-05T04:33:10.744Z,71.92
2022-08-05T04:36:15.723Z,71.89
2022-08-05T04:38:39.293Z,71.61
2022-08-05T04:41:07.332Z,72.04
2022-08-05T04:43:36.081Z,71.84
2022-08-05T04:46:05.102Z,71.84
2022-08-05T04:48:32.051Z,71.60
2022-08-05T04:51:03.075Z,71.57
2022-08-05T04:53:36.650Z,71.53
2022-08-05T04:56:33.487Z,71.40
2022-08-05T04:58:54.076Z,71.50
2022-08-05T05:01:33.822Z,71.70
2022-08-05T05:04:07.411Z,71.43
2022-08-05T05:06:36.550Z,71.44
2022-08-05T05:09:14.044Z,71.93
2022-08-05T05:11:54.431Z,71.95
2022-08-05T05:14:31.287Z,71.09
2022-08-05T05:17:03.485Z,68.10
2022-08-05T05:19:36.358Z,65.53
2022-08-05T05:22:24.320Z,59.70
2022-08-05T05:24:57.335Z,56.33
2022-08-05T05:27:44.544Z,53.23
2022-08-05T05:30:33.526Z,47.63
2022-08-05T05:33:08.878Z,43.04
2022-08-05T05:35:43.908Z,39.02
2022-08-05T05:38:13.441Z,37.70
2022-08-05T05:40:48.347Z,35.24
2022-08-05T05:43:22.406Z,32.01
2022-08-05T05:46:05.243Z,30.41
2022-08-05T05:48:34.476Z,28.52
2022-08-05T05:51:14.804Z,27.21
2022-08-05T05:53:54.606Z,26.18
2022-08-05T05:56:33.065Z,25.25
2022-08-05T05:59:03.292Z,24.96
2022-08-05T06:01:37.103Z,23.54
2022-08-05T06:04:05.559Z,23.62
2022-08-05T06:06:34.845Z,22.60
2022-08-05T06:09:03.191Z,22.16
2022-08-05T06:11:30.931Z,21.03
2022-08-05T06:13:57.932Z,20.35
2022-08-05T06:16:36.989Z,20.33
2022-08-05T06:19:05.893Z,19.36
2022-08-05T06:21:49.773Z,18.81
2022-08-05T06:24:16.607Z,18.20
2022-08-05T06:26:53.297Z,17.84
2022-08-05T06:29:25.444Z,17.30
2022-08-05T06:32:26.386Z,16.92
2022-08-05T06:34:56.283Z,16.99
2022-08-05T06:37:58.381Z,17.32
2022-08-05T06:40:12.202Z,17.11
2022-08-05T06:42:39.910Z,16.56
2022-08-05T06:45:08.513Z,16.42
2022-08-05T06:48:44.195Z,16.54
2022-08-05T06:50:22.882Z,15.58
2022-08-05T06:53:03.638Z,15.32
2022-08-05T06:55:37.107Z,14.67
2022-08-05T06:58:29.804Z,15.18
2022-08-05T07:00:50.962Z,16.29
2022-08-05T07:03:17.759Z,17.15
2022-08-05T07:05:46.466Z,18.38
2022-08-05T07:08:13.381Z,19.29
2022-08-05T07:10:53.294Z,21.06
2022-08-05T07:13:57.748Z,22.15
2022-08-05T07:18:02.351Z,22.00
2022-08-05T07:22:29.133Z,23.01
2022-08-05T07:25:23.058Z,24.31
2022-08-05T07:27:58.421Z,25.95
2022-08-05T07:30:33.741Z,26.89
2022-08-05T07:33:09.469Z,28.04
2022-08-05T07:36:05.299Z,29.63
2022-08-05T07:38:34.006Z,30.35
2022-08-05T07:42:06.759Z,30.81
2022-08-05T07:43:52.688Z,32.20
2022-08-05T07:46:25.298Z,32.59
2022-08-05T07:49:02.408Z,31.47
2022-08-05T07:51:48.719Z,31.57
2022-08-05T07:54:26.637Z,35.56
2022-08-05T07:57:01.582Z,35.05
2022-08-05T07:59:41.899Z,32.79
2022-08-05T08:02:16.660Z,36.13
2022-08-05T08:04:48.323Z,36.98
2022-08-05T08:07:16.193Z,34.59
2022-08-05T08:09:44.971Z,34.97
2022-08-05T08:12:33.323Z,35.28
2022-08-05T08:15:03.517Z,35.26
2022-08-05T08:17:31.993Z,36.77
2022-08-05T08:20:21.051Z,35.50
2022-08-05T08:22:51.687Z,36.38
2022-08-05T08:25:27.101Z,36.44
2022-08-05T08:28:06.177Z,36.54
2022-08-05T08:30:47.723Z,36.30
2022-08-05T08:33:16.694Z,35.00
2022-08-05T08:35:53.180Z,35.63
2022-08-05T08:38:35.362Z,37.05
2022-08-05T08:41:08.611Z,36.61
2022-08-05T08:45:20.486Z,35.90
2022-08-05T08:46:24.494Z,35.20
2022-08-05T08:49:04.175Z,35.29
2022-08-05T08:52:02.874Z,35.17
2022-08-05T08:54:27.201Z,30.35
2022-08-05T08:56:54.195Z,33.68
2022-08-05T08:59:23.179Z,34.30
2022-08-05T09:01:57.397Z,34.23
2022-08-05T09:04:30.315Z,34.91
2022-08-05T09:06:57.577Z,35.52
2022-08-05T09:09:25.085Z,33.86
2022-08-05T09:11:55.296Z,34.05
2022-08-05T09:14:57.811Z,34.04
2022-08-05T09:17:39.993Z,34.22
2022-08-05T09:20:02.953Z,34.02
2022-08-05T09:23:07.736Z,34.80
2022-08-05T09:26:02.156Z,34.37
2022-08-05T09:28:32.478Z,34.57
2022-08-05T09:31:23.318Z,34.46
2022-08-05T09:33:56.180Z,33.43
2022-08-05T09:36:27.668Z,32.72
2022-08-05T09:39:18.169Z,33.21
2022-08-05T09:41:56.152Z,33.06
2022-08-05T09:44:50.484Z,32.90
2022-08-05T09:47:22.620Z,34.51
2022-08-05T09:50:00.966Z,32.58
2022-08-05T09:52:32.598Z,33.46
2022-08-05T09:55:55.199Z,32.60
2022-08-05T09:57:54.805Z,32.85
2022-08-05T10:00:26.362Z,29.96
2022-08-05T10:02:58.295Z,33.36
2022-08-05T10:05:29.065Z,34.69
2022-08-05T10:08:35.741Z,33.10
2022-08-05T10:10:54.050Z,32.46
2022-08-05T10:13:48.186Z,33.30
2022-08-05T10:16:52.472Z,31.83
2022-08-05T10:19:23.685Z,30.40
2022-08-05T10:22:07.556Z,32.31
2022-08-05T10:24:35.798Z,31.25
2022-08-05T10:27:07.607Z,31.73
2022-08-05T10:30:41.581Z,29.79
2022-08-05T10:32:53.400Z,32.93
2022-08-05T10:35:10.388Z,30.39
2022-08-05T10:37:40.322Z,32.36
2022-08-05T10:40:49.432Z,32.47
2022-08-05T10:43:36.593Z,32.92
2022-08-05T10:46:07.078Z,31.29
2022-08-05T10:48:57.276Z,31.70
2022-08-05T10:51:28.818Z,33.25
2022-08-05T10:54:01.509Z,32.25
2022-08-05T10:56:44.845Z,33.62
2022-08-05T11:00:03.363Z,32.44
2022-08-05T11:02:37.620Z,32.04
2022-08-05T11:05:07.286Z,32.08
2022-08-05T11:08:01.123Z,30.02
2022-08-05T11:10:27.761Z,31.91
2022-08-05T11:12:57.047Z,29.24
2022-08-05T11:15:44.025Z,28.58
2022-08-05T11:18:30.141Z,30.01
2022-08-05T11:20:59.491Z,30.14
2022-08-05T11:23:49.843Z,31.03
2022-08-05T11:26:28.129Z,29.35
2022-08-05T11:29:06.971Z,30.15
2022-08-05T11:31:58.580Z,31.97
2022-08-05T11:34:37.334Z,30.19
2022-08-05T11:38:14.270Z,28.88
2022-08-05T11:40:00.376Z,29.77
2022-08-05T11:42:31.584Z,29.54
2022-08-05T11:45:03.012Z,28.22
2022-08-05T11:47:49.843Z,31.96
2022-08-05T11:50:17.611Z,30.57
2022-08-05T11:52:48.786Z,30.03
2022-08-05T11:55:16.301Z,30.20
2022-08-05T11:58:10.968Z,30.27
2022-08-05T12:00:37.790Z,29.97
2022-08-05T12:03:32.015Z,27.60
2022-08-05T12:06:09.747Z,27.83
2022-08-05T12:09:04.229Z,27.75
2022-08-05T12:11:39.891Z,29.75
2022-08-05T12:14:08.503Z,29.68
2022-08-05T12:16:45.361Z,28.74
2022-08-05T12:20:16.634Z,31.42
2022-08-05T12:22:00.004Z,29.32
2022-08-05T12:24:27.980Z,31.64
2022-08-05T12:26:54.817Z,30.79
2022-08-05T12:29:27.176Z,28.19
2022-08-05T12:31:58.045Z,28.82
2022-08-05T12:34:33.066Z,30.71
2022-08-05T12:37:10.780Z,29.63
2022-08-05T12:39:44.585Z,29.31
2022-08-05T12:42:20.038Z,29.42
2022-08-05T12:44:47.437Z,28.20
2022-08-05T12:47:17.827Z,27.88
2022-08-05T12:50:04.748Z,26.97
2022-08-05T12:52:38.931Z,27.15
2022-08-05T12:55:25.629Z,30.20
2022-08-05T12:58:52.425Z,30.49
2022-08-05T13:02:01.166Z,28.31
2022-08-05T13:03:32.178Z,29.98
2022-08-05T13:06:00.901Z,29.32
2022-08-05T13:08:30.129Z,31.61
2022-08-05T13:11:04.094Z,32.07
2022-08-05T13:14:06.089Z,29.70
2022-08-05T13:16:19.932Z,29.74
2022-08-05T13:22:29.180Z,30.82
2022-08-05T13:25:00.431Z,28.65
2022-08-05T13:27:38.213Z,28.42
2022-08-05T13:30:33.618Z,31.39
2022-08-05T13:32:54.051Z,30.87
2022-08-05T13:35:43.338Z,28.60
2022-08-05T13:38:15.717Z,28.75
2022-08-05T13:40:55.312Z,31.28
2022-08-05T13:43:22.458Z,31.44
2022-08-05T13:49:54.358Z,29.15
2022-08-05T13:52:29.177Z,29.72
2022-08-05T13:54:56.650Z,31.80
2022-08-05T13:57:26.320Z,30.80
2022-08-05T14:00:13.155Z,30.92
2022-08-05T14:02:40.026Z,31.10
2022-08-05T14:05:29.200Z,30.59
2022-08-05T14:08:03.233Z,30.30
2022-08-05T14:10:37.443Z,28.47
2022-08-05T14:13:05.857Z,28.30
2022-08-05T14:16:04.882Z,30.22
2022-08-05T14:18:23.517Z,28.35
2022-08-05T14:20:54.982Z,29.60
2022-08-05T14:23:25.671Z,29.99
2022-08-05T14:25:58.909Z,30.30
2022-08-05T14:28:28.144Z,28.82
2022-08-05T14:30:56.188Z,30.35
2022-08-05T14:33:24.049Z,30.03
2022-08-05T14:35:51.753Z,29.27
2022-08-05T14:38:32.405Z,30.16
2022-08-05T14:41:02.061Z,30.29
2022-08-05T14:43:53.924Z,30.65
2022-08-05T14:46:20.175Z,29.68
2022-08-05T14:48:49.323Z,30.21
2022-08-05T14:51:17.566Z,32.41
2022-08-05T14:53:45.040Z,31.21
2022-08-05T14:56:13.437Z,31.19
2022-08-05T14:58:47.927Z,31.63
2022-08-05T15:01:47.010Z,31.30
2022-08-05T15:04:11.495Z,30.89
2022-08-05T15:06:38.910Z,30.36
2022-08-05T15:09:07.145Z,30.04
2022-08-05T15:11:50.968Z,32.34
2022-08-05T15:14:33.396Z,32.18
2022-08-05T15:17:03.968Z,32.24
2022-08-05T15:19:31.170Z,32.15
2022-08-05T15:22:00.175Z,33.29
2022-08-05T15:24:28.346Z,32.26
2022-08-05T15:26:56.038Z,31.90
2022-08-05T15:29:23.856Z,32.16
2022-08-05T15:31:57.438Z,32.62
2022-08-05T15:34:33.232Z,34.63
2022-08-05T15:37:05.094Z,33.59
2022-08-05T15:40:59.098Z,33.37
2022-08-05T15:42:54.400Z,32.50
2022-08-05T15:45:09.915Z,32.93
2022-08-05T15:47:37.139Z,31.79
2022-08-05T15:50:07.266Z,34.28
2022-08-05T15:52:54.782Z,34.99
2022-08-05T15:55:24.580Z,31.02
2022-08-05T15:57:52.170Z,31.42
2022-08-05T16:00:32.750Z,34.05
2022-08-05T16:03:06.737Z,34.45
2022-08-05T16:05:33.833Z,33.59
2022-08-05T16:08:00.922Z,34.73
2022-08-05T16:10:27.853Z,34.89
2022-08-05T16:12:56.317Z,36.84
2022-08-05T16:15:23.656Z,37.00
2022-08-05T16:17:57.702Z,35.50
2022-08-05T16:20:25.617Z,35.29
2022-08-05T16:22:54.894Z,36.41
2022-08-05T16:25:24.162Z,37.59
2022-08-05T16:28:06.079Z,36.54
2022-08-05T16:30:34.209Z,38.74
2022-08-05T16:33:03.134Z,38.58
2022-08-05T16:35:32.588Z,38.67
2022-08-05T16:38:00.651Z,38.54
2022-08-05T16:40:47.859Z,38.86
2022-08-05T16:43:23.881Z,39.61
2022-08-05T16:46:06.776Z,42.44
2022-08-05T16:48:37.750Z,42.54
2022-08-05T16:51:10.141Z,42.97
2022-08-05T16:54:02.450Z,42.18
2022-08-05T16:56:25.648Z,41.81
2022-08-05T16:58:52.369Z,42.87
2022-08-05T17:01:21.665Z,43.72
2022-08-05T17:03:51.931Z,43.92
2022-08-05T17:06:19.087Z,44.64
2022-08-05T17:08:53.047Z,44.31
2022-08-05T17:11:25.159Z,44.42
2022-08-05T17:14:06.243Z,44.84
2022-08-05T17:16:37.223Z,44.61
2022-08-05T17:19:09.545Z,44.84
2022-08-05T17:21:37.469Z,45.60
2022-08-05T17:24:14.260Z,46.02
2022-08-05T17:26:52.658Z,45.62
2022-08-05T17:29:22.749Z,45.39
2022-08-05T17:31:59.661Z,45.25
2022-08-05T17:34:30.084Z,44.75
2022-08-05T17:37:00.130Z,44.76
2022-08-05T17:39:33.611Z,45.38
2022-08-05T17:42:18.520Z,45.82
2022-08-05T17:44:51.100Z,46.58
2022-08-05T17:47:22.226Z,46.70
2022-08-05T17:50:00.372Z,47.15
2022-08-05T17:52:53.265Z,46.69
2022-08-05T17:55:22.401Z,47.43
2022-08-05T17:57:50.303Z,47.28
2022-08-05T18:00:17.581Z,47.62
2022-08-05T18:02:46.935Z,48.61
2022-08-05T18:05:16.717Z,48.43
2022-08-05T18:07:44.722Z,48.78
2022-08-05T18:10:20.395Z,49.32
2022-08-05T18:12:48.780Z,48.86
2022-08-05T18:15:15.534Z,49.56
2022-08-05T18:18:01.654Z,49.52
2022-08-05T18:20:31.862Z,49.74
2022-08-05T18:23:00.600Z,49.80
2022-08-05T18:25:38.843Z,50.31
2022-08-05T18:28:06.190Z,50.76
2022-08-05T18:30:33.594Z,50.77
2022-08-05T18:33:01.285Z,51.49
2022-08-05T18:36:00.774Z,50.96
2022-08-05T18:38:18.933Z,51.06
2022-08-05T18:41:56.091Z,51.55
2022-08-05T18:43:38.021Z,51.53
2022-08-05T18:46:10.869Z,52.28
2022-08-05T18:48:41.845Z,52.16
2022-08-05T18:52:04.882Z,52.58
2022-08-05T18:54:14.150Z,51.84
2022-08-05T18:56:41.904Z,52.78
2022-08-05T18:59:43.751Z,53.04
2022-08-05T19:02:04.832Z,52.81
2022-08-05T19:05:02.073Z,53.30
2022-08-05T19:07:25.241Z,53.41
2022-08-05T19:09:56.757Z,53.93
2022-08-05T19:12:23.572Z,53.85
2022-08-05T19:15:00.599Z,53.89
2022-08-05T19:17:59.158Z,53.58
2022-08-05T19:20:16.376Z,53.71
2022-08-05T19:22:44.149Z,54.32
2022-08-05T19:25:11.046Z,54.78
2022-08-05T19:27:56.482Z,54.44
2022-08-05T19:30:23.259Z,54.71
2022-08-05T19:32:50.516Z,54.79
2022-08-05T19:35:17.421Z,54.77
2022-08-05T19:38:06.211Z,54.68
2022-08-05T19:40:35.158Z,55.19
2022-08-05T19:43:05.513Z,55.31
2022-08-05T19:45:36.535Z,55.43
2022-08-05T19:48:04.458Z,56.31
2022-08-05T19:50:32.088Z,55.87
2022-08-05T19:52:58.835Z,55.77
2022-08-05T19:56:14.202Z,56.55
2022-08-05T19:58:28.609Z,58.10
2022-08-05T20:00:56.583Z,57.10
2022-08-05T20:03:25.372Z,57.27
2022-08-05T20:05:56.652Z,57.70
2022-08-05T20:08:24.305Z,57.17
2022-08-05T20:10:51.690Z,57.53
2022-08-05T20:13:30.146Z,57.70
2022-08-05T20:16:05.867Z,57.69
2022-08-05T20:18:35.878Z,57.62
2022-08-05T20:21:04.729Z,58.88
2022-08-05T20:23:39.873Z,59.30
2022-08-05T20:26:17.525Z,59.03
2022-08-05T20:28:51.487Z,58.70
2022-08-05T20:31:21.721Z,58.45
2022-08-05T20:33:50.153Z,59.69
2022-08-05T20:36:18.048Z,59.71
2022-08-05T20:38:54.634Z,59.45
2022-08-05T20:41:27.485Z,59.12
2022-08-05T20:44:18.744Z,60.01
2022-08-05T20:46:56.833Z,61.27
2022-08-05T20:49:24.401Z,60.71
2022-08-05T20:51:53.824Z,60.67
2022-08-05T20:54:20.780Z,60.59
2022-08-05T20:56:47.523Z,60.21
2022-08-05T20:59:27.119Z,60.74
2022-08-05T21:02:06.010Z,61.05
2022-08-05T21:04:33.686Z,60.80
2022-08-05T21:07:00.378Z,60.49
2022-08-05T21:09:27.253Z,60.53
2022-08-05T21:12:08.867Z,61.17
2022-08-05T21:14:38.011Z,61.18
2022-08-05T21:17:05.429Z,61.24
2022-08-05T21:19:47.268Z,61.82
2022-08-05T21:22:21.780Z,62.07
2022-08-05T21:24:51.921Z,61.77
2022-08-05T21:27:20.521Z,61.63
2022-08-05T21:29:51.572Z,61.36
2022-08-05T21:32:19.941Z,61.44
2022-08-05T21:35:08.262Z,61.25
2022-08-05T21:37:33.555Z,61.50
2022-08-05T21:40:04.476Z,61.90
2022-08-05T21:42:44.220Z,62.55
2022-08-05T21:45:24.599Z,62.24
2022-08-05T21:47:56.672Z,62.35
2022-08-05T21:50:26.256Z,62.10
2022-08-05T21:52:53.313Z,62.99
2022-08-05T21:55:43.115Z,62.49
2022-08-05T21:58:10.219Z,62.59
2022-08-05T22:00:38.399Z,62.49
2022-08-05T22:03:06.942Z,62.79
2022-08-05T22:05:48.623Z,62.71
2022-08-05T22:08:22.073Z,63.19
2022-08-05T22:10:49.788Z,63.13
2022-08-05T22:14:32.725Z,63.04
2022-08-05T22:16:15.769Z,62.87
2022-08-05T22:18:50.477Z,63.13
2022-08-05T22:21:18.995Z,63.40
2022-08-05T22:24:12.967Z,63.48
2022-08-05T22:27:11.047Z,64.36
2022-08-05T22:29:43.449Z,64.90
2022-08-05T22:32:10.280Z,64.48
2022-08-05T22:34:36.922Z,64.32
2022-08-05T22:37:04.722Z,64.04
2022-08-05T22:39:33.884Z,63.98
2022-08-05T22:42:11.175Z,64.07
2022-08-05T22:44:39.918Z,63.92
2022-08-05T22:47:06.959Z,63.84
2022-08-05T22:50:20.986Z,64.74
2022-08-05T22:52:30.653Z,65.28
2022-08-05T22:55:00.876Z,64.79
2022-08-05T22:57:36.242Z,64.54
2022-08-05T23:00:06.206Z,64.31
2022-08-05T23:02:35.608Z,64.19
2022-08-05T23:05:13.101Z,64.03
2022-08-05T23:07:44.855Z,64.21
2022-08-05T23:10:16.291Z,64.51
2022-08-05T23:12:47.275Z,64.52
2022-08-05T23:15:18.040Z,64.69
2022-08-05T23:18:01.435Z,64.43
2022-08-05T23:20:30.393Z,64.31
2022-08-05T23:22:58.789Z,64.22
2022-08-05T23:25:54.685Z,64.56
2022-08-05T23:28:12.763Z,65.01
2022-08-05T23:30:43.445Z,65.35
2022-08-05T23:33:16.300Z,64.73
2022-08-05T23:35:50.336Z,64.70
2022-08-05T23:38:17.217Z,64.73
2022-08-05T23:40:49.553Z,64.96
2022-08-05T23:43:25.472Z,65.12
2022-08-05T23:46:20.649Z,64.97
2022-08-05T23:49:00.412Z,65.82
2022-08-05T23:51:53.933Z,65.08
2022-08-05T23:54:38.053Z,62.70
2022-08-05T23:57:05.809Z,61.87
